Time;durP1;ratioP1;P1;durP2;ratioP2;P2;SDS_P1;SDS_P2;PMS_P1;PMS_P2;Temp;Humidity;BMP_temperature;BMP_pressure;BME280_temperature;BME280_humidity;BME280_pressure;Samples;Min_cycle;Max_cycle;Signal;HPM_P1;HPM_P2
2023/07/09 00:02:21;;;;;;;4.10;1.73;;;18.00;99.90;;;;;;4970137;28;20506;-79
2023/07/09 00:04:47;;;;;;;3.15;1.50;;;17.90;99.90;;;;;;4987429;28;20062;-80
2023/07/09 00:07:18;;;;;;;2.20;1.02;;;17.90;99.90;;;;;;4987629;28;20111;-80
2023/07/09 00:09:44;;;;;;;2.63;1.50;;;17.90;99.90;;;;;;4970402;28;20159;-79
2023/07/09 00:12:17;;;;;;;5.53;1.58;;;17.90;99.90;;;;;;4970148;28;20566;-80
2023/07/09 00:14:43;;;;;;;9.35;1.80;;;17.90;99.90;;;;;;4987698;28;20046;-79
2023/07/09 00:17:21;;;;;;;3.78;1.38;;;17.80;99.90;;;;;;4970197;28;20180;-79
2023/07/09 00:19:47;;;;;;;4.68;1.70;;;17.80;99.90;;;;;;4987538;28;20467;-79
2023/07/09 00:22:18;;;;;;;3.20;1.65;;;17.70;99.90;;;;;;4987231;28;20030;-79
2023/07/09 00:24:50;;;;;;;4.30;1.75;;;17.70;99.90;;;;;;4969998;28;20121;-79
2023/07/09 00:27:18;;;;;;;6.55;1.50;;;17.70;99.90;;;;;;4969940;28;20026;-79
2023/07/09 00:29:44;;;;;;;4.32;1.45;;;17.70;99.90;;;;;;4987293;28;20494;-79
2023/07/09 00:32:15;;;;;;;4.05;1.42;;;17.60;99.90;;;;;;4970037;28;20022;-79
2023/07/09 00:34:41;;;;;;;3.83;1.70;;;17.60;99.90;;;;;;4987415;28;20026;-79
2023/07/09 00:37:14;;;;;;;3.33;1.30;;;17.60;99.90;;;;;;4987227;28;20494;-79
2023/07/09 00:39:40;;;;;;;4.95;1.30;;;17.60;99.90;;;;;;4969983;28;20030;-79
2023/07/09 00:42:14;;;;;;;2.55;1.20;;;17.60;99.90;;;;;;4987047;28;20018;-79
2023/07/09 00:44:43;;;;;;;4.07;1.40;;;17.60;99.90;;;;;;4969913;28;20372;-79
2023/07/09 00:47:17;;;;;;;2.42;1.40;;;17.60;99.90;;;;;;4969848;28;20038;-79
2023/07/09 00:49:46;;;;;;;2.30;1.50;;;17.50;99.90;;;;;;4969848;28;20038;-78
2023/07/09 00:52:35;;;;;;;4.63;1.65;;;17.50;99.90;;;;;;4987408;28;20034;-79
2023/07/09 00:55:07;;;;;;;3.97;1.50;;;17.50;99.90;;;;;;4969608;28;20030;-79
2023/07/09 00:57:37;;;;;;;8.68;1.55;;;17.50;99.90;;;;;;4987257;28;20174;-79
2023/07/09 01:00:09;;;;;;;3.30;1.40;;;17.50;99.90;;;;;;4969666;28;20064;-79
2023/07/09 01:02:36;;;;;;;4.05;1.35;;;17.50;99.90;;;;;;4986931;28;20038;-80
2023/07/09 01:05:03;;;;;;;6.18;1.95;;;17.50;99.90;;;;;;4987059;28;20022;-79
2023/07/09 01:07:29;;;;;;;2.97;1.10;;;17.40;99.90;;;;;;4986803;28;20518;-79
2023/07/09 01:09:55;;;;;;;3.95;1.65;;;17.50;99.90;;;;;;4986983;28;20023;-79
2023/07/09 01:12:23;;;;;;;4.13;1.23;;;17.50;99.90;;;;;;4969298;28;20830;-79
2023/07/09 01:14:51;;;;;;;3.05;1.30;;;17.50;99.90;;;;;;4987089;28;20084;-78
2023/07/09 01:17:17;;;;;;;2.95;1.20;;;17.50;99.90;;;;;;4972947;28;20026;-78
2023/07/09 01:19:48;;;;;;;3.17;1.40;;;17.50;99.90;;;;;;4990312;28;20037;-79
2023/07/09 01:22:17;;;;;;;2.67;1.48;;;17.50;99.90;;;;;;4989852;28;20029;-79
2023/07/09 01:24:52;;;;;;;2.95;1.40;;;17.50;99.90;;;;;;4972661;28;20095;-79
2023/07/09 01:27:21;;;;;;;4.70;1.30;;;17.50;99.90;;;;;;4990105;28;20109;-79
2023/07/09 01:29:49;;;;;;;4.57;1.40;;;17.50;99.90;;;;;;4972625;28;20023;-79
2023/07/09 01:32:18;;;;;;;3.47;1.40;;;17.50;99.90;;;;;;4972484;28;20060;-78
2023/07/09 01:34:47;;;;;;;4.00;1.60;;;17.50;99.90;;;;;;4972563;28;20375;-79
2023/07/09 01:37:14;;;;;;;2.42;1.13;;;17.50;99.90;;;;;;4972519;28;20493;-79
2023/07/09 01:39:40;;;;;;;4.93;2.15;;;17.40;99.90;;;;;;4989981;28;20019;-78
2023/07/09 01:42:08;;;;;;;2.72;1.30;;;17.40;99.90;;;;;;4972246;28;20041;-79
2023/07/09 01:44:35;;;;;;;4.78;1.52;;;17.40;99.90;;;;;;4972459;28;20566;-78
2023/07/09 01:47:03;;;;;;;3.72;1.73;;;17.40;99.90;;;;;;4972288;28;20029;-79
2023/07/09 01:49:32;;;;;;;3.47;1.40;;;17.40;99.90;;;;;;4989800;28;20054;-77
2023/07/09 01:52:00;;;;;;;8.02;1.40;;;17.40;99.90;;;;;;4972387;28;20562;-78
2023/07/09 01:54:30;;;;;;;2.58;1.40;;;17.40;99.90;;;;;;4972136;28;20486;-79
2023/07/09 01:57:14;;;;;;;2.30;1.27;;;17.40;99.90;;;;;;4972223;28;20023;-79
2023/07/09 01:59:41;;;;;;;2.08;1.25;;;17.40;99.90;;;;;;4971898;28;20126;-79
2023/07/09 02:02:07;;;;;;;3.15;1.85;;;17.40;99.90;;;;;;4972023;28;20105;-79
2023/07/09 02:04:33;;;;;;;8.02;1.20;;;17.30;99.90;;;;;;4989485;28;20694;-79
2023/07/09 02:06:59;;;;;;;3.13;1.52;;;17.30;99.90;;;;;;4989761;28;20102;-79
2023/07/09 02:09:25;;;;;;;2.22;1.27;;;17.20;99.90;;;;;;4971935;28;20568;-80
2023/07/09 02:11:51;;;;;;;9.25;1.80;;;17.20;99.90;;;;;;4990498;28;20038;-80
2023/07/09 02:14:16;;;;;;;5.25;1.55;;;17.20;99.90;;;;;;4972128;28;20506;-80
2023/07/09 02:16:43;;;;;;;4.63;1.30;;;17.20;99.90;;;;;;4989394;28;20034;-79
2023/07/09 02:19:09;;;;;;;3.58;1.75;;;17.10;99.90;;;;;;4972048;28;20033;-79
2023/07/09 02:21:34;;;;;;;2.33;1.40;;;17.10;99.90;;;;;;4971899;28;20030;-78
2023/07/09 02:24:00;;;;;;;6.70;1.90;;;17.10;99.90;;;;;;4989109;28;20035;-78
2023/07/09 02:26:26;;;;;;;5.63;1.35;;;17.10;99.90;;;;;;4989007;28;20093;-79
2023/07/09 02:28:51;;;;;;;3.63;1.60;;;17.00;99.90;;;;;;4989139;28;20023;-78
2023/07/09 02:31:17;;;;;;;5.72;1.52;;;17.00;99.90;;;;;;4989223;28;20026;-77
2023/07/09 02:33:42;;;;;;;4.35;1.85;;;17.00;99.90;;;;;;4989247;28;20033;-78
2023/07/09 02:36:08;;;;;;;2.17;1.20;;;17.00;99.90;;;;;;4988869;28;20026;-79
2023/07/09 02:38:34;;;;;;;5.75;1.60;;;17.00;99.90;;;;;;4971477;28;20533;-78
2023/07/09 02:40:59;;;;;;;3.17;1.70;;;17.00;99.90;;;;;;4989072;28;20034;-79
2023/07/09 02:43:25;;;;;;;5.22;1.88;;;17.10;99.90;;;;;;4971311;28;20038;-78
2023/07/09 02:45:51;;;;;;;4.18;1.40;;;17.10;99.90;;;;;;4971674;28;20039;-79
2023/07/09 02:48:16;;;;;;;4.57;1.50;;;17.20;99.90;;;;;;4988648;28;20088;-78
2023/07/09 02:50:42;;;;;;;8.45;1.80;;;17.20;99.90;;;;;;4988865;28;20034;-78
2023/07/09 02:53:07;;;;;;;3.42;1.48;;;17.20;99.90;;;;;;4971657;28;20395;-79
2023/07/09 02:55:34;;;;;;;5.05;1.80;;;17.20;99.90;;;;;;4971325;28;20494;-79
2023/07/09 02:58:00;;;;;;;4.55;1.50;;;17.20;99.90;;;;;;4971309;28;20054;-79
2023/07/09 03:00:26;;;;;;;4.22;1.67;;;17.30;99.90;;;;;;4988621;28;20029;-78
2023/07/09 03:02:51;;;;;;;6.10;1.65;;;17.30;99.90;;;;;;4971587;28;20038;-78
2023/07/09 03:05:17;;;;;;;2.92;1.63;;;17.30;99.90;;;;;;4971231;28;20027;-78
2023/07/09 03:07:42;;;;;;;4.13;1.50;;;17.30;99.90;;;;;;4988659;28;20022;-78
2023/07/09 03:10:08;;;;;;;6.35;1.38;;;17.30;99.90;;;;;;4988457;28;20030;-79
2023/07/09 03:12:34;;;;;;;6.68;1.48;;;17.40;99.90;;;;;;4971067;28;20516;-78
2023/07/09 03:14:59;;;;;;;5.82;1.77;;;17.40;99.90;;;;;;4971047;28;20121;-79
2023/07/09 03:17:25;;;;;;;4.47;2.22;;;17.50;99.90;;;;;;4971110;28;20034;-79
2023/07/09 03:19:51;;;;;;;10.15;1.90;;;17.50;99.90;;;;;;4988553;28;20035;-78
2023/07/09 03:22:16;;;;;;;9.82;2.00;;;17.50;99.90;;;;;;4970890;28;20019;-79
2023/07/09 03:24:42;;;;;;;6.72;1.80;;;17.60;99.90;;;;;;4970815;28;20030;-78
2023/07/09 03:27:08;;;;;;;4.70;2.20;;;17.60;99.90;;;;;;4971281;28;20031;-79
2023/07/09 03:29:34;;;;;;;5.93;1.65;;;17.60;99.90;;;;;;4988106;28;20490;-77
2023/07/09 03:32:00;;;;;;;7.72;2.03;;;17.70;99.90;;;;;;4970807;28;20019;-79
2023/07/09 03:34:25;;;;;;;3.95;1.63;;;17.70;99.90;;;;;;4988112;28;20057;-79
2023/07/09 03:36:51;;;;;;;3.63;1.75;;;17.80;99.90;;;;;;4970777;28;20030;-79
2023/07/09 03:39:17;;;;;;;3.45;1.67;;;17.90;99.90;;;;;;4987152;28;20559;-79
2023/07/09 03:41:42;;;;;;;4.63;1.83;;;17.90;99.90;;;;;;4970682;28;20403;-79
2023/07/09 03:44:08;;;;;;;2.85;1.50;;;18.00;99.90;;;;;;4987708;28;20109;-77
2023/07/09 03:46:34;;;;;;;4.63;1.42;;;18.10;99.90;;;;;;4987997;28;20057;-79
2023/07/09 03:49:00;;;;;;;4.10;2.00;;;18.20;99.90;;;;;;4970665;28;20105;-78
2023/07/09 03:51:25;;;;;;;4.25;1.80;;;18.30;99.90;;;;;;4987967;28;20026;-80
2023/07/09 03:53:51;;;;;;;3.22;1.55;;;18.40;99.90;;;;;;4988166;28;20502;-80
2023/07/09 03:56:16;;;;;;;8.35;2.72;;;18.50;99.90;;;;;;4970239;28;20033;-79
2023/07/09 03:58:42;;;;;;;5.05;2.20;;;18.60;99.90;;;;;;4987735;28;20388;-80
2023/07/09 04:01:08;;;;;;;11.98;1.85;;;18.70;99.90;;;;;;4987851;28;20093;-79
2023/07/09 04:03:34;;;;;;;7.68;2.00;;;18.90;99.90;;;;;;4987670;28;20498;-79
2023/07/09 04:05:59;;;;;;;3.55;1.70;;;19.10;99.90;;;;;;4970352;28;20493;-79
2023/07/09 04:08:25;;;;;;;3.58;2.10;;;19.40;99.90;;;;;;4970286;28;20042;-79
2023/07/09 04:10:55;;;;;;;5.18;1.98;;;19.60;99.90;;;;;;4987766;28;20021;-79
2023/07/09 04:13:20;;;;;;;9.75;2.22;;;19.80;99.90;;;;;;4987767;28;20032;-80
2023/07/09 04:15:46;;;;;;;8.60;1.90;;;20.00;99.90;;;;;;4970530;28;20031;-79
2023/07/09 04:18:12;;;;;;;9.10;2.28;;;20.00;99.90;;;;;;4969847;28;20109;-79
2023/07/09 04:20:38;;;;;;;5.43;1.75;;;20.00;99.90;;;;;;4970105;28;20406;-80
2023/07/09 04:23:04;;;;;;;2.97;1.45;;;20.00;99.90;;;;;;4987457;28;20407;-79
2023/07/09 04:25:30;;;;;;;3.22;1.77;;;20.00;99.90;;;;;;4987390;28;20034;-80
2023/07/09 04:27:56;;;;;;;4.70;1.50;;;20.00;99.90;;;;;;4987472;28;20449;-80
2023/07/09 04:30:21;;;;;;;3.85;1.52;;;20.10;99.90;;;;;;4987283;28;20034;-78
2023/07/09 04:32:47;;;;;;;4.30;1.73;;;20.20;99.90;;;;;;4987447;28;20383;-79
2023/07/09 04:35:14;;;;;;;7.25;2.20;;;20.30;99.90;;;;;;4987606;28;20061;-79
2023/07/09 04:37:40;;;;;;;9.07;2.28;;;20.50;99.90;;;;;;4969877;28;20042;-79
2023/07/09 04:40:10;;;;;;;3.45;1.85;;;20.70;99.90;;;;;;4987419;28;20022;-79
2023/07/09 04:42:37;;;;;;;3.80;2.42;;;20.80;99.90;;;;;;4969678;28;20038;-82
2023/07/09 04:45:03;;;;;;;6.15;2.33;;;21.00;99.90;;;;;;4987317;28;20128;-79
2023/07/09 04:47:29;;;;;;;6.22;3.25;;;21.20;99.90;;;;;;4969668;28;20490;-79
2023/07/09 04:49:54;;;;;;;6.93;2.55;;;21.30;99.90;;;;;;4970046;28;20064;-78
2023/07/09 04:52:22;;;;;;;4.55;2.88;;;21.50;99.90;;;;;;4973739;28;20034;-79
2023/07/09 04:54:49;;;;;;;5.13;2.33;;;21.70;99.90;;;;;;4973620;28;20077;-79
2023/07/09 04:57:14;;;;;;;3.75;2.10;;;21.80;99.90;;;;;;4990608;28;20057;-78
2023/07/09 04:59:41;;;;;;;4.63;2.05;;;21.80;99.70;;;;;;4973197;28;20811;-78
2023/07/09 05:02:06;;;;;;;7.43;2.28;;;22.00;99.70;;;;;;4972937;28;20091;-78
2023/07/09 05:04:33;;;;;;;6.15;2.25;;;22.10;99.90;;;;;;4990481;28;20560;-79
2023/07/09 05:06:58;;;;;;;5.53;2.22;;;22.10;99.40;;;;;;4973152;28;20031;-78
2023/07/09 05:09:24;;;;;;;4.45;1.98;;;22.20;97.90;;;;;;4972900;28;20037;-78
2023/07/09 05:11:51;;;;;;;3.13;1.83;;;22.30;97.00;;;;;;4973101;28;20062;-79
2023/07/09 05:14:17;;;;;;;4.32;2.08;;;22.50;97.30;;;;;;4990364;28;20038;-78
2023/07/09 05:16:43;;;;;;;5.60;1.88;;;22.60;96.70;;;;;;4990298;28;20069;-78
2023/07/09 05:19:09;;;;;;;3.58;2.17;;;22.80;95.50;;;;;;4990311;28;20061;-79
2023/07/09 05:21:35;;;;;;;8.25;2.25;;;23.00;94.80;;;;;;4990214;28;20061;-78
2023/07/09 05:24:01;;;;;;;5.13;1.80;;;23.30;93.90;;;;;;4972558;28;20677;-78
2023/07/09 05:26:27;;;;;;;4.32;1.80;;;23.60;92.60;;;;;;4972812;28;20018;-78
2023/07/09 05:28:53;;;;;;;8.52;1.70;;;23.70;91.60;;;;;;4972787;28;20044;-78
2023/07/09 05:31:18;;;;;;;3.38;1.83;;;23.80;90.90;;;;;;4972503;28;20490;-78
2023/07/09 05:33:44;;;;;;;4.88;1.65;;;23.90;90.50;;;;;;4972549;28;20037;-79
2023/07/09 05:36:15;;;;;;;3.88;1.75;;;23.90;88.70;;;;;;4989829;28;20430;-78
2023/07/09 05:38:49;;;;;;;5.35;1.88;;;24.00;85.60;;;;;;4989770;28;20108;-77
2023/07/09 05:41:16;;;;;;;5.47;1.75;;;24.10;84.10;;;;;;4972492;28;20027;-78
2023/07/09 05:43:44;;;;;;;2.53;1.70;;;24.20;83.80;;;;;;4989969;28;20516;-79
2023/07/09 05:46:10;;;;;;;4.82;1.70;;;24.40;83.70;;;;;;4989604;28;20072;-78
2023/07/09 05:48:35;;;;;;;2.92;1.50;;;24.60;80.10;;;;;;4972165;28;20402;-78
2023/07/09 05:51:01;;;;;;;4.93;1.88;;;24.90;77.90;;;;;;4972170;28;20061;-79
2023/07/09 05:53:27;;;;;;;2.90;1.75;;;25.20;74.40;;;;;;4989676;28;20033;-79
2023/07/09 05:55:56;;;;;;;5.45;1.63;;;25.60;73.30;;;;;;4989499;28;20030;-78
2023/07/09 05:58:23;;;;;;;8.45;2.13;;;26.00;72.00;;;;;;4972185;28;20095;-80
2023/07/09 06:00:53;;;;;;;6.63;2.10;;;26.40;70.60;;;;;;4989085;28;20522;-80
2023/07/09 06:03:21;;;;;;;4.15;1.77;;;27.20;67.30;;;;;;4971646;28;20042;-79
2023/07/09 06:05:49;;;;;;;5.00;1.60;;;28.70;61.30;;;;;;4972234;28;20038;-79
2023/07/09 06:08:23;;;;;;;4.68;1.50;;;30.30;57.50;;;;;;4989243;28;20031;-80
2023/07/09 06:10:58;;;;;;;2.00;1.20;;;31.90;53.20;;;;;;4989425;28;20077;-80
2023/07/09 06:13:25;;;;;;;4.95;1.63;;;33.40;47.70;;;;;;4972200;28;20054;-80
2023/07/09 06:15:53;;;;;;;5.55;1.90;;;34.40;46.70;;;;;;4989485;28;20106;-80
2023/07/09 06:18:20;;;;;;;4.10;1.80;;;35.40;44.00;;;;;;4989136;28;20091;-79
2023/07/09 06:20:48;;;;;;;5.00;2.05;;;36.20;41.50;;;;;;4971983;28;20066;-80
2023/07/09 06:23:14;;;;;;;4.65;1.98;;;36.80;38.90;;;;;;4971575;28;20129;-80
2023/07/09 06:25:40;;;;;;;2.70;1.42;;;37.20;38.10;;;;;;4989211;28;20117;-80
2023/07/09 06:28:05;;;;;;;2.95;1.60;;;37.60;36.90;;;;;;4988906;28;20038;-80
2023/07/09 06:30:31;;;;;;;3.80;1.80;;;37.90;35.90;;;;;;4989208;28;20026;-80
2023/07/09 06:32:57;;;;;;;6.60;2.05;;;38.40;33.70;;;;;;4989078;28;20031;-80
2023/07/09 06:35:22;;;;;;;5.28;1.90;;;38.40;34.00;;;;;;4989046;28;20030;-80
2023/07/09 06:37:48;;;;;;;3.55;1.52;;;38.10;35.50;;;;;;4988946;28;20136;-80
2023/07/09 06:40:14;;;;;;;8.18;1.88;;;38.30;35.20;;;;;;4988845;28;20398;-80
2023/07/09 06:42:39;;;;;;;4.35;1.95;;;38.50;35.60;;;;;;4988722;28;20113;-80
2023/07/09 06:45:06;;;;;;;4.80;1.85;;;38.60;32.80;;;;;;4988952;28;20038;-80
2023/07/09 06:47:31;;;;;;;6.20;1.77;;;38.20;33.80;;;;;;4988664;28;20058;-79
2023/07/09 06:49:57;;;;;;;12.13;2.10;;;38.60;33.60;;;;;;4988932;28;20690;-80
2023/07/09 06:52:23;;;;;;;6.47;2.05;;;38.60;33.70;;;;;;4971184;28;20030;-81
2023/07/09 06:54:49;;;;;;;5.25;1.92;;;38.30;34.10;;;;;;4988653;28;20114;-80
2023/07/09 06:57:15;;;;;;;5.63;1.70;;;38.40;32.70;;;;;;4971174;28;20061;-80
2023/07/09 06:59:40;;;;;;;5.03;2.08;;;38.50;32.20;;;;;;4971170;28;20449;-80
2023/07/09 07:02:06;;;;;;;4.70;1.92;;;38.10;32.60;;;;;;4988594;28;20033;-80
2023/07/09 07:04:32;;;;;;;3.22;1.95;;;38.00;31.70;;;;;;4988547;28;20042;-80
2023/07/09 07:06:58;;;;;;;3.38;1.90;;;38.30;32.00;;;;;;4988663;28;20029;-80
2023/07/09 07:09:23;;;;;;;4.25;1.85;;;37.90;30.90;;;;;;4971546;28;20113;-80
2023/07/09 07:11:50;;;;;;;2.63;1.48;;;38.10;31.30;;;;;;4988465;28;20054;-80
2023/07/09 07:14:15;;;;;;;3.00;1.90;;;38.00;32.00;;;;;;4986087;28;20440;-80
2023/07/09 07:16:41;;;;;;;9.38;2.33;;;37.90;32.30;;;;;;4988715;28;20095;-80
2023/07/09 07:19:07;;;;;;;5.43;1.65;;;38.20;32.80;;;;;;4970883;28;20498;-80
2023/07/09 07:21:32;;;;;;;4.57;2.10;;;38.30;32.10;;;;;;4988401;28;20045;-80
2023/07/09 07:23:58;;;;;;;6.55;2.22;;;38.40;32.40;;;;;;4988175;28;20115;-80
2023/07/09 07:26:24;;;;;;;5.78;2.17;;;38.10;31.80;;;;;;4988157;28;20030;-80
2023/07/09 07:28:50;;;;;;;2.95;1.75;;;38.00;31.80;;;;;;4988140;28;20041;-80
2023/07/09 07:31:16;;;;;;;8.13;1.88;;;38.40;32.30;;;;;;4988159;28;20018;-81
2023/07/09 07:33:42;;;;;;;5.07;1.90;;;38.50;31.30;;;;;;4970591;28;20034;-80
2023/07/09 07:36:09;;;;;;;8.52;1.83;;;38.20;31.60;;;;;;4987940;28;20106;-80
2023/07/09 07:38:35;;;;;;;6.22;2.00;;;38.20;31.60;;;;;;4970180;28;20054;-80
2023/07/09 07:41:01;;;;;;;4.65;1.67;;;38.30;33.50;;;;;;4987918;28;20037;-81
2023/07/09 07:43:27;;;;;;;4.07;1.83;;;38.20;32.30;;;;;;4970381;28;20039;-79
2023/07/09 07:45:53;;;;;;;2.85;1.75;;;38.30;33.70;;;;;;4987964;28;20095;-80
2023/07/09 07:48:19;;;;;;;4.00;1.95;;;38.50;33.50;;;;;;4987725;28;20597;-80
2023/07/09 07:50:47;;;;;;;5.13;1.92;;;38.70;33.40;;;;;;4987850;28;20070;-80
2023/07/09 07:53:14;;;;;;;3.40;1.60;;;38.70;32.60;;;;;;4970304;28;20032;-80
2023/07/09 07:55:41;;;;;;;3.40;2.15;;;38.80;32.00;;;;;;4970601;28;20041;-80
2023/07/09 07:58:12;;;;;;;6.57;2.22;;;39.00;30.70;;;;;;4970114;28;20030;-81
2023/07/09 08:00:39;;;;;;;3.35;1.98;;;38.90;31.10;;;;;;4987778;28;20042;-81
2023/07/09 08:03:04;;;;;;;7.90;1.85;;;38.70;31.20;;;;;;4970272;28;20119;-81
2023/07/09 08:05:30;;;;;;;2.95;1.58;;;38.30;29.80;;;;;;4970283;28;20471;-80
2023/07/09 08:07:56;;;;;;;5.93;1.50;;;38.40;32.20;;;;;;4987548;28;20029;-80
2023/07/09 08:10:22;;;;;;;5.43;1.67;;;38.40;30.60;;;;;;4970001;28;20038;-80
2023/07/09 08:12:48;;;;;;;3.05;1.83;;;37.80;31.70;;;;;;4987645;28;20053;-81
2023/07/09 08:15:14;;;;;;;6.25;1.70;;;37.90;32.50;;;;;;4970102;28;20069;-80
2023/07/09 08:17:39;;;;;;;4.32;2.28;;;38.40;29.70;;;;;;4987483;28;20022;-80
2023/07/09 08:20:05;;;;;;;4.13;1.90;;;38.30;29.50;;;;;;4987267;28;20030;-80
2023/07/09 08:22:31;;;;;;;10.38;2.10;;;38.00;30.00;;;;;;4987455;28;20682;-80
2023/07/09 08:24:57;;;;;;;3.30;1.80;;;37.40;30.30;;;;;;4987325;28;20034;-80
2023/07/09 08:27:22;;;;;;;2.72;1.77;;;37.30;30.50;;;;;;4987467;28;20396;-80
2023/07/09 08:29:48;;;;;;;2.85;1.48;;;37.20;31.00;;;;;;4987403;28;20052;-80
2023/07/09 08:32:14;;;;;;;8.13;1.70;;;37.20;31.00;;;;;;4987136;28;20054;-80
2023/07/09 08:34:41;;;;;;;4.47;2.38;;;37.30;31.10;;;;;;4987136;28;20034;-80
2023/07/09 08:37:08;;;;;;;6.40;1.92;;;37.20;30.90;;;;;;4987000;28;20023;-81
2023/07/09 08:39:34;;;;;;;6.38;1.88;;;37.10;31.70;;;;;;4986956;28;20520;-80
2023/07/09 08:42:10;;;;;;;8.05;1.92;;;37.20;32.10;;;;;;4969559;28;20068;-80
2023/07/09 08:44:51;;;;;;;3.08;1.55;;;37.40;31.70;;;;;;4987294;28;20047;-80
2023/07/09 08:47:23;;;;;;;3.47;1.52;;;37.70;29.70;;;;;;4986917;28;20042;-80
2023/07/09 08:50:02;;;;;;;2.97;1.70;;;37.60;29.80;;;;;;4969566;28;20027;-80
2023/07/09 08:52:33;;;;;;;2.97;1.60;;;37.40;30.40;;;;;;4987177;28;20545;-80
2023/07/09 08:55:09;;;;;;;4.80;1.65;;;37.80;31.00;;;;;;4986887;28;20050;-80
2023/07/09 08:57:43;;;;;;;7.15;1.83;;;37.70;29.20;;;;;;4969673;28;20070;-80
2023/07/09 09:00:29;;;;;;;7.25;1.40;;;37.50;28.90;;;;;;4986729;28;20022;-80
2023/07/09 09:03:10;;;;;;;2.88;1.60;;;37.30;30.50;;;;;;4986852;28;20490;-80
2023/07/09 09:05:41;;;;;;;4.35;1.95;;;37.50;29.70;;;;;;4986804;28;20069;-80
2023/07/09 09:08:20;;;;;;;2.50;1.58;;;37.40;29.10;;;;;;4969208;28;20110;-80
2023/07/09 09:10:58;;;;;;;3.47;2.13;;;37.20;30.00;;;;;;4969211;28;20384;-80
2023/07/09 09:13:27;;;;;;;4.07;2.13;;;37.30;30.30;;;;;;4969401;28;20495;-80
2023/07/09 09:15:59;;;;;;;3.70;1.88;;;37.10;29.10;;;;;;4986796;28;20537;-80
2023/07/09 09:18:27;;;;;;;2.88;1.60;;;37.10;29.90;;;;;;4986522;28;20155;-81
2023/07/09 09:21:06;;;;;;;7.05;1.65;;;37.20;31.10;;;;;;4986716;28;20018;-80
2023/07/09 09:23:40;;;;;;;5.00;1.67;;;37.30;30.10;;;;;;4969073;28;20042;-80
2023/07/09 09:26:26;;;;;;;7.13;2.38;;;37.30;31.30;;;;;;4968958;28;20402;-80
2023/07/09 09:28:52;;;;;;;5.80;1.90;;;37.70;30.90;;;;;;4986834;28;20030;-80
2023/07/09 09:31:18;;;;;;;2.72;1.67;;;37.60;29.70;;;;;;4969244;28;20117;-79
2023/07/09 09:33:47;;;;;;;3.08;1.67;;;37.50;28.70;;;;;;4986563;28;20071;-80
2023/07/09 09:36:24;;;;;;;2.25;1.80;;;37.30;28.60;;;;;;4986865;28;20025;-79
2023/07/09 09:38:50;;;;;;;6.97;1.95;;;37.20;29.90;;;;;;4989622;28;20122;-79
2023/07/09 09:41:26;;;;;;;4.95;3.83;;;37.60;30.90;;;;;;4972587;28;20022;-80
2023/07/09 09:43:53;;;;;;;3.50;1.65;;;37.70;28.80;;;;;;4972357;28;20133;-80
2023/07/09 09:46:22;;;;;;;4.25;1.77;;;37.50;29.90;;;;;;4989608;28;20096;-80
2023/07/09 09:48:55;;;;;;;2.53;1.60;;;37.40;29.80;;;;;;4972080;28;20026;-79
2023/07/09 09:51:23;;;;;;;3.67;1.70;;;37.70;30.00;;;;;;4989873;28;20026;-79
2023/07/09 09:53:52;;;;;;;3.20;2.10;;;37.90;29.80;;;;;;4989557;28;20448;-79
2023/07/09 09:56:30;;;;;;;2.85;1.67;;;37.60;29.70;;;;;;4989391;28;20118;-79
2023/07/09 09:58:57;;;;;;;4.57;1.83;;;37.80;29.10;;;;;;4989439;28;20375;-79
2023/07/09 10:01:31;;;;;;;2.97;1.55;;;37.60;29.70;;;;;;4989425;28;20047;-79
2023/07/09 10:03:59;;;;;;;8.23;1.50;;;37.90;29.10;;;;;;4989463;28;20585;-78
2023/07/09 10:06:41;;;;;;;3.28;1.75;;;37.50;29.50;;;;;;4989414;28;20019;-78
2023/07/09 10:09:37;;;;;;;2.28;1.38;;;37.20;30.40;;;;;;4971924;28;20034;-80
2023/07/09 10:12:21;;;;;;;3.42;1.73;;;36.50;31.40;;;;;;4989454;28;20447;-78
2023/07/09 10:14:59;;;;;;;10.40;2.35;;;36.00;32.90;;;;;;4971920;28;20026;-79
2023/07/09 10:17:45;;;;;;;3.40;2.20;;;35.70;33.60;;;;;;4971638;28;20099;-80
2023/07/09 10:20:32;;;;;;;3.08;1.60;;;35.40;33.70;;;;;;4988963;28;20111;-80
2023/07/09 10:23:29;;;;;;;3.95;1.98;;;35.20;33.80;;;;;;4989590;28;20045;-80
2023/07/09 10:26:19;;;;;;;4.82;1.95;;;34.90;34.50;;;;;;4989698;28;20042;-79
2023/07/09 10:28:50;;;;;;;3.58;1.65;;;34.80;36.30;;;;;;4989071;28;20105;-79
2023/07/09 10:31:24;;;;;;;5.75;2.13;;;34.60;35.50;;;;;;4971623;28;20403;-78
2023/07/09 10:34:14;;;;;;;4.18;1.73;;;34.50;36.50;;;;;;4971812;28;20403;-77
2023/07/09 10:36:46;;;;;;;10.15;2.03;;;34.50;36.40;;;;;;4971462;28;20117;-78
2023/07/09 10:39:20;;;;;;;5.70;1.63;;;34.30;35.90;;;;;;4988770;28;20074;-78
2023/07/09 10:41:48;;;;;;;3.20;1.70;;;34.20;35.40;;;;;;4971599;28;20080;-77
2023/07/09 10:44:14;;;;;;;3.70;1.83;;;33.90;35.40;;;;;;4988516;28;20038;-78
2023/07/09 10:46:45;;;;;;;3.10;1.88;;;33.80;36.20;;;;;;4971424;28;20627;-79
2023/07/09 10:49:14;;;;;;;4.38;1.70;;;33.60;36.20;;;;;;4971401;28;20403;-78
2023/07/09 10:52:04;;;;;;;8.02;1.90;;;33.40;38.20;;;;;;4988726;28;20034;-77
2023/07/09 10:54:39;;;;;;;2.55;1.80;;;33.30;37.80;;;;;;4971523;28;20026;-78
2023/07/09 10:57:31;;;;;;;4.20;1.75;;;33.30;37.70;;;;;;4988710;28;20070;-78
2023/07/09 10:59:58;;;;;;;3.47;1.73;;;33.20;38.30;;;;;;4998736;28;20043;-78
2023/07/09 11:02:26;;;;;;;2.33;1.60;;;33.20;37.70;;;;;;4971030;28;20023;-78
2023/07/09 11:04:58;;;;;;;4.78;1.95;;;33.10;37.30;;;;;;4971043;28;20048;-77
2023/07/09 11:07:45;;;;;;;2.65;1.65;;;32.80;36.80;;;;;;4988381;28;20394;-78
2023/07/09 11:10:30;;;;;;;6.97;1.63;;;32.60;38.20;;;;;;4988594;28;20029;-78
2023/07/09 11:13:16;;;;;;;5.38;2.20;;;32.50;37.30;;;;;;4970793;28;20548;-81
2023/07/09 11:15:45;;;;;;;6.68;2.33;;;32.20;37.40;;;;;;4988337;28;20031;-81
2023/07/09 11:18:19;;;;;;;4.40;1.60;;;32.10;39.00;;;;;;4970608;28;20084;-80
2023/07/09 11:20:45;;;;;;;4.10;1.67;;;32.20;39.90;;;;;;4988315;28;20551;-78
2023/07/09 11:23:24;;;;;;;7.13;1.80;;;32.30;39.60;;;;;;4988156;28;20045;-79
2023/07/09 11:26:27;;;;;;;10.60;2.30;;;32.50;40.10;;;;;;4970764;28;20030;-79
2023/07/09 11:28:56;;;;;;;4.93;1.80;;;32.50;39.40;;;;;;4981269;28;20038;-78
2023/07/09 11:31:38;;;;;;;5.72;2.50;;;32.60;39.40;;;;;;4988076;28;20034;-77
2023/07/09 11:34:07;;;;;;;4.07;2.30;;;32.60;39.30;;;;;;4987957;28;20030;-78
2023/07/09 11:36:33;;;;;;;3.55;2.13;;;32.70;40.00;;;;;;4970557;28;20445;-78
2023/07/09 11:38:59;;;;;;;5.15;1.92;;;32.80;39.10;;;;;;4988357;28;20081;-77
2023/07/09 11:41:25;;;;;;;2.83;1.70;;;32.80;39.40;;;;;;4988297;28;20062;-78
2023/07/09 11:43:50;;;;;;;5.82;1.73;;;32.60;38.50;;;;;;4970533;28;20180;-78
2023/07/09 11:46:26;;;;;;;5.18;1.50;;;32.40;37.00;;;;;;4987686;28;20109;-78
2023/07/09 11:48:56;;;;;;;4.07;1.77;;;32.20;37.40;;;;;;4970433;28;20050;-80
2023/07/09 11:51:37;;;;;;;2.97;1.45;;;32.40;37.30;;;;;;4988317;28;20041;-79
2023/07/09 11:54:03;;;;;;;3.83;1.98;;;32.50;38.20;;;;;;4969979;28;20514;-78
2023/07/09 11:56:29;;;;;;;7.18;2.10;;;32.80;39.50;;;;;;4988100;28;20034;-79
2023/07/09 11:58:56;;;;;;;3.22;2.08;;;32.80;37.50;;;;;;4987417;28;20072;-78
2023/07/09 12:01:30;;;;;;;3.80;2.22;;;32.70;37.90;;;;;;4987762;28;20045;-79
2023/07/09 12:03:57;;;;;;;3.58;1.67;;;32.80;37.90;;;;;;4987590;28;20677;-79
2023/07/09 12:06:27;;;;;;;3.63;2.17;;;32.90;38.30;;;;;;4987429;28;20040;-79
2023/07/09 12:08:54;;;;;;;5.45;1.60;;;33.00;37.80;;;;;;4987433;28;20031;-79
2023/07/09 12:11:30;;;;;;;4.05;2.03;;;32.90;38.40;;;;;;4987593;28;20022;-80
2023/07/09 12:14:03;;;;;;;6.15;1.90;;;32.80;39.10;;;;;;4987345;28;20026;-79
2023/07/09 12:16:32;;;;;;;6.65;2.00;;;32.80;38.90;;;;;;4985953;28;20564;-80
2023/07/09 12:18:58;;;;;;;3.67;1.50;;;32.90;38.30;;;;;;4987420;28;20404;-80
2023/07/09 12:21:25;;;;;;;4.07;1.98;;;32.90;38.80;;;;;;4987385;28;20494;-80
2023/07/09 12:23:51;;;;;;;6.88;1.50;;;33.00;38.70;;;;;;4987600;28;20072;-79
2023/07/09 12:26:19;;;;;;;10.20;2.38;;;33.00;39.40;;;;;;4987049;28;20018;-80
2023/07/09 12:28:57;;;;;;;2.85;1.85;;;33.00;38.90;;;;;;4987497;28;20057;-79
2023/07/09 12:31:30;;;;;;;5.55;2.33;;;33.20;38.50;;;;;;4987154;28;20084;-80
2023/07/09 12:33:58;;;;;;;2.65;1.90;;;33.00;38.80;;;;;;4987389;28;20030;-78
2023/07/09 12:36:26;;;;;;;4.03;2.10;;;32.90;39.60;;;;;;5002150;28;20027;-80
2023/07/09 12:38:56;;;;;;;2.63;1.63;;;33.00;39.10;;;;;;4969505;28;20217;-79
2023/07/09 12:41:28;;;;;;;3.90;2.05;;;33.00;39.20;;;;;;4987125;28;20494;-77
2023/07/09 12:43:55;;;;;;;3.25;1.75;;;33.00;38.50;;;;;;4969490;28;20581;-79
2023/07/09 12:46:25;;;;;;;7.60;1.60;;;32.80;38.90;;;;;;4987251;28;20022;-80
2023/07/09 12:48:51;;;;;;;3.03;1.58;;;32.70;39.80;;;;;;4987025;28;20037;-79
2023/07/09 12:51:29;;;;;;;6.18;2.20;;;32.60;40.30;;;;;;4969466;28;20026;-79
2023/07/09 12:54:12;;;;;;;5.20;2.08;;;32.70;40.60;;;;;;4969402;28;20030;-78
2023/07/09 12:56:38;;;;;;;4.43;2.10;;;32.80;39.50;;;;;;4986858;28;20080;-80